Time;durP1;ratioP1;P1;durP2;ratioP2;P2;SDS_P1;SDS_P2;PMS_P1;PMS_P2;Temp;Humidity;BMP_temperature;BMP_pressure;BME280_temperature;BME280_humidity;BME280_pressure;Samples;Min_cycle;Max_cycle;Signal;HPM_P1;HPM_P2
2021/04/23 00:01:37;;;;;;;3.30;1.40;;;5.40;80.70;;;;;;5031881;28;20174;-68
2021/04/23 00:04:05;;;;;;;3.47;0.93;;;5.30;80.60;;;;;;5018423;28;20201;-68
2021/04/23 00:06:41;;;;;;;3.45;1.58;;;5.30;80.70;;;;;;5049801;28;20224;-68
2021/04/23 00:09:16;;;;;;;3.35;0.90;;;5.30;80.90;;;;;;5029854;28;20194;-68
2021/04/23 00:11:56;;;;;;;4.32;1.20;;;5.20;81.00;;;;;;5016925;28;20208;-67
2021/04/23 00:14:25;;;;;;;3.00;0.95;;;5.20;81.90;;;;;;5027339;28;20233;-67
2021/04/23 00:16:51;;;;;;;3.20;0.98;;;5.10;82.90;;;;;;5014423;28;20163;-67
2021/04/23 00:19:25;;;;;;;3.20;0.90;;;5.10;83.70;;;;;;5020120;28;20194;-67
2021/04/23 00:21:53;;;;;;;3.20;1.20;;;5.00;84.80;;;;;;5033432;28;20270;-67
2021/04/23 00:24:19;;;;;;;2.80;0.50;;;5.10;85.20;;;;;;5034144;28;20182;-68
2021/04/23 00:26:45;;;;;;;3.20;1.10;;;5.00;85.70;;;;;;5031874;28;20572;-67
2021/04/23 00:29:10;;;;;;;3.63;1.60;;;5.00;86.30;;;;;;5014477;28;20202;-67
2021/04/23 00:31:37;;;;;;;4.40;1.23;;;4.90;87.00;;;;;;5014295;28;20457;-68
2021/04/23 00:34:03;;;;;;;5.40;1.00;;;4.90;88.20;;;;;;5033944;28;20178;-67
2021/04/23 00:36:29;;;;;;;2.90;0.63;;;4.80;87.90;;;;;;5049142;28;20174;-67
2021/04/23 00:38:54;;;;;;;3.80;1.50;;;4.80;88.40;;;;;;5016016;28;20746;-67
2021/04/23 00:41:31;;;;;;;3.63;0.90;;;4.70;89.10;;;;;;5015553;28;20175;-67
2021/04/23 00:43:57;;;;;;;3.67;0.70;;;4.80;89.50;;;;;;5031470;28;20189;-67
2021/04/23 00:46:25;;;;;;;4.55;1.80;;;4.60;89.90;;;;;;5034011;28;20162;-67
2021/04/23 00:48:52;;;;;;;3.58;1.40;;;4.60;90.10;;;;;;5017514;28;20195;-67
2021/04/23 00:51:24;;;;;;;3.28;0.77;;;4.50;90.40;;;;;;5025621;28;20208;-67
2021/04/23 00:53:52;;;;;;;3.40;1.10;;;4.40;90.50;;;;;;5018353;28;20174;-67
2021/04/23 00:56:21;;;;;;;3.42;0.95;;;4.50;90.70;;;;;;5013955;28;20214;-67
2021/04/23 00:58:48;;;;;;;3.55;0.80;;;4.40;90.80;;;;;;5026706;28;20529;-67
2021/04/23 01:01:19;;;;;;;3.00;0.40;;;4.40;91.00;;;;;;5023577;28;20563;-67
2021/04/23 01:03:45;;;;;;;3.10;0.70;;;4.30;91.30;;;;;;5028221;28;20178;-67
2021/04/23 01:06:14;;;;;;;3.10;0.60;;;4.20;91.50;;;;;;5031733;28;20252;-67
2021/04/23 01:08:41;;;;;;;3.20;0.65;;;4.20;91.80;;;;;;5020094;28;20442;-67
2021/04/23 01:11:08;;;;;;;3.50;1.20;;;4.20;92.30;;;;;;5021415;28;20170;-67
2021/04/23 01:13:34;;;;;;;3.10;0.68;;;4.20;92.60;;;;;;5033815;28;20162;-67
2021/04/23 01:16:04;;;;;;;3.65;1.23;;;4.10;92.80;;;;;;5026867;28;20254;-67
2021/04/23 01:18:31;;;;;;;3.20;0.85;;;4.10;92.90;;;;;;5014009;28;20288;-67
2021/04/23 01:21:19;;;;;;;3.85;1.42;;;4.10;93.10;;;;;;5019861;28;20178;-67
2021/04/23 01:23:47;;;;;;;3.08;0.60;;;4.00;93.30;;;;;;5033252;28;20257;-67
2021/04/23 01:26:15;;;;;;;3.17;0.73;;;4.00;93.60;;;;;;5020874;28;20216;-66
2021/04/23 01:28:44;;;;;;;3.58;0.90;;;4.00;93.90;;;;;;5033255;28;20209;-67
2021/04/23 01:31:12;;;;;;;3.10;0.68;;;4.00;94.10;;;;;;5026521;28;20213;-67
2021/04/23 01:33:41;;;;;;;3.20;1.17;;;4.00;94.30;;;;;;5013687;28;20560;-67
2021/04/23 01:36:08;;;;;;;3.80;0.77;;;4.00;94.40;;;;;;5018877;28;20257;-67
2021/04/23 01:38:36;;;;;;;3.13;0.70;;;4.00;94.40;;;;;;5033438;28;20536;-67
2021/04/23 01:41:02;;;;;;;3.10;0.85;;;3.90;94.50;;;;;;5028084;28;20214;-67
2021/04/23 01:43:28;;;;;;;4.78;1.27;;;3.90;94.90;;;;;;5013734;28;20167;-68
2021/04/23 01:45:54;;;;;;;3.47;0.97;;;3.80;94.90;;;;;;5014248;28;20711;-68
2021/04/23 01:48:19;;;;;;;3.17;0.68;;;3.80;95.10;;;;;;5048476;28;20190;-67
2021/04/23 01:50:46;;;;;;;3.20;0.60;;;3.80;95.20;;;;;;5028353;28;20182;-67
2021/04/23 01:53:11;;;;;;;3.20;0.63;;;3.80;95.30;;;;;;5013336;28;20210;-68
2021/04/23 01:55:39;;;;;;;4.03;1.23;;;3.70;96.10;;;;;;5021120;28;20166;-71
2021/04/23 01:58:04;;;;;;;3.60;1.13;;;3.70;96.30;;;;;;5033020;28;20533;-67
2021/04/23 02:00:37;;;;;;;3.30;0.70;;;3.70;96.40;;;;;;5026179;28;20173;-68
2021/04/23 02:03:07;;;;;;;7.82;1.25;;;3.70;96.70;;;;;;5033360;28;20401;-67
2021/04/23 02:05:33;;;;;;;4.18;1.48;;;3.60;97.00;;;;;;5026083;28;20497;-67
2021/04/23 02:08:00;;;;;;;3.20;0.40;;;3.60;97.00;;;;;;5011598;28;20206;-67
2021/04/23 02:10:30;;;;;;;3.38;0.80;;;3.50;97.00;;;;;;5018128;28;20186;-67
2021/04/23 02:12:57;;;;;;;3.20;0.50;;;3.50;97.30;;;;;;5013374;28;20604;-68
2021/04/23 02:15:26;;;;;;;3.30;0.60;;;3.50;97.50;;;;;;5018434;28;20182;-68
2021/04/23 02:17:52;;;;;;;3.67;1.48;;;3.40;98.30;;;;;;5032366;28;20209;-68
2021/04/23 02:20:22;;;;;;;3.75;0.73;;;3.40;98.50;;;;;;5024516;28;20174;-68
2021/04/23 02:22:48;;;;;;;4.78;2.53;;;3.40;98.60;;;;;;5037100;28;20170;-68
2021/04/23 02:25:16;;;;;;;3.92;0.82;;;3.30;98.70;;;;;;5031355;28;20569;-68
2021/04/23 02:27:41;;;;;;;4.78;1.67;;;3.30;98.90;;;;;;5016808;28;20192;-68
2021/04/23 02:30:14;;;;;;;3.47;1.00;;;3.30;99.20;;;;;;5023365;28;20178;-68
2021/04/23 02:32:40;;;;;;;3.90;0.90;;;3.30;99.40;;;;;;5015406;28;20205;-68
2021/04/23 02:35:09;;;;;;;6.15;1.88;;;3.30;99.70;;;;;;5015833;28;20174;-68
2021/04/23 02:37:35;;;;;;;3.30;0.60;;;3.30;99.70;;;;;;5016505;28;20507;-68
2021/04/23 02:40:02;;;;;;;4.78;1.23;;;3.30;99.70;;;;;;5023360;28;20182;-68
2021/04/23 02:42:28;;;;;;;3.30;0.82;;;3.30;99.70;;;;;;5015460;28;20178;-68
2021/04/23 02:44:56;;;;;;;3.50;0.97;;;3.30;99.80;;;;;;5017255;28;20209;-68
2021/04/23 02:47:22;;;;;;;3.20;0.60;;;3.20;99.90;;;;;;5036200;28;20170;-68
2021/04/23 02:49:48;;;;;;;3.50;0.80;;;3.10;99.90;;;;;;5026608;28;20238;-68
2021/04/23 02:52:14;;;;;;;3.60;1.30;;;3.20;99.90;;;;;;5036000;28;20690;-68
2021/04/23 02:54:40;;;;;;;3.60;1.58;;;3.10;99.90;;;;;;5036462;28;20184;-67
2021/04/23 02:57:06;;;;;;;4.03;0.90;;;3.10;99.90;;;;;;5035448;28;20538;-67
2021/04/23 02:59:31;;;;;;;3.57;0.73;;;3.10;99.90;;;;;;5049343;28;20194;-68
2021/04/23 03:01:58;;;;;;;3.60;0.80;;;3.00;99.90;;;;;;5018066;28;20694;-67
2021/04/23 03:04:24;;;;;;;3.20;0.70;;;3.00;99.90;;;;;;5016617;28;20175;-67
2021/04/23 03:06:50;;;;;;;3.40;0.60;;;3.00;99.90;;;;;;5031674;28;20185;-67
2021/04/23 03:09:16;;;;;;;3.90;0.90;;;3.00;99.90;;;;;;5034116;28;20614;-68
2021/04/23 03:11:43;;;;;;;3.80;0.90;;;2.90;99.90;;;;;;5036268;28;20194;-67
2021/04/23 03:14:09;;;;;;;3.40;0.75;;;2.80;99.90;;;;;;5034730;28;20651;-67
2021/04/23 03:16:39;;;;;;;4.18;1.17;;;2.80;99.90;;;;;;5015855;28;20270;-67
2021/04/23 03:19:18;;;;;;;6.05;1.50;;;2.80;99.90;;;;;;5016316;28;20201;-67
2021/04/23 03:21:45;;;;;;;3.70;0.70;;;2.80;99.90;;;;;;5031315;28;20269;-67
2021/04/23 03:24:13;;;;;;;3.30;0.50;;;2.70;99.90;;;;;;5016476;28;20182;-67
2021/04/23 03:26:40;;;;;;;6.22;2.15;;;2.70;99.90;;;;;;5015614;28;20170;-67
2021/04/23 03:29:07;;;;;;;4.05;1.33;;;2.70;99.90;;;;;;5015871;28;20186;-67
2021/04/23 03:31:35;;;;;;;4.22;1.00;;;2.70;99.90;;;;;;5015672;28;20210;-67
2021/04/23 03:34:01;;;;;;;3.40;0.40;;;2.70;99.90;;;;;;5016017;28;20167;-67
2021/04/23 03:36:27;;;;;;;3.60;0.90;;;2.70;99.90;;;;;;5034348;28;20220;-67
2021/04/23 03:38:53;;;;;;;3.50;0.60;;;2.60;99.90;;;;;;5023958;28;20195;-67
2021/04/23 03:41:25;;;;;;;4.80;0.80;;;2.60;99.90;;;;;;5033816;28;20165;-67
2021/04/23 03:43:52;;;;;;;5.45;2.05;;;2.60;99.90;;;;;;5035361;28;20208;-67
2021/04/23 03:46:19;;;;;;;5.95;1.20;;;2.60;99.90;;;;;;5020578;28;20258;-67
2021/04/23 03:48:45;;;;;;;3.50;0.55;;;2.60;99.90;;;;;;5035399;28;20690;-67
2021/04/23 03:51:12;;;;;;;3.50;0.60;;;2.60;99.90;;;;;;5033304;28;20193;-68
2021/04/23 03:53:39;;;;;;;3.42;0.50;;;2.50;99.90;;;;;;5035385;28;20197;-67
2021/04/23 03:56:06;;;;;;;3.70;0.93;;;2.50;99.90;;;;;;5037798;28;20663;-68
2021/04/23 03:58:32;;;;;;;13.10;1.65;;;2.50;99.90;;;;;;5015316;28;20199;-67
2021/04/23 04:01:20;;;;;;;4.45;1.15;;;2.40;99.90;;;;;;5016099;28;20254;-67
2021/04/23 04:03:47;;;;;;;3.90;1.13;;;2.40;99.90;;;;;;5015209;28;20217;-67
2021/04/23 04:06:13;;;;;;;3.58;0.60;;;2.50;99.90;;;;;;5030950;28;20213;-68
2021/04/23 04:08:39;;;;;;;3.60;0.80;;;2.50;99.90;;;;;;5015152;28;20580;-67
2021/04/23 04:11:05;;;;;;;11.07;1.25;;;2.50;99.90;;;;;;5032607;28;20260;-67
2021/04/23 04:13:32;;;;;;;3.40;0.60;;;2.40;99.90;;;;;;5035031;28;20167;-67
2021/04/23 04:15:58;;;;;;;3.80;0.80;;;2.40;99.90;;;;;;5018343;28;20245;-68
2021/04/23 04:18:24;;;;;;;3.70;1.08;;;2.40;99.90;;;;;;5032311;28;20217;-67
2021/04/23 04:20:51;;;;;;;3.55;0.65;;;2.40;99.90;;;;;;5019036;28;20258;-67
2021/04/23 04:23:19;;;;;;;5.35;1.30;;;2.40;99.90;;;;;;5014906;28;20178;-68
2021/04/23 04:25:58;;;;;;;3.83;0.55;;;2.30;99.90;;;;;;5017694;28;20668;-68
2021/04/23 04:28:25;;;;;;;3.40;0.50;;;2.30;99.90;;;;;;5014901;28;20202;-67
2021/04/23 04:30:53;;;;;;;4.82;1.10;;;2.30;99.90;;;;;;5028766;28;20185;-67
2021/04/23 04:33:19;;;;;;;3.63;0.55;;;2.30;99.90;;;;;;5049915;28;20287;-67
2021/04/23 04:35:46;;;;;;;3.90;0.97;;;2.40;99.90;;;;;;5039592;28;20613;-69
2021/04/23 04:38:13;;;;;;;4.07;1.77;;;2.50;99.90;;;;;;5034407;28;20200;-68
2021/04/23 04:40:42;;;;;;;4.32;2.15;;;2.60;99.90;;;;;;5021875;28;20185;-68
2021/04/23 04:43:09;;;;;;;3.42;0.50;;;2.80;99.90;;;;;;5014356;28;20178;-68
2021/04/23 04:45:36;;;;;;;5.05;1.13;;;3.00;99.90;;;;;;5016383;28;20253;-69
2021/04/23 04:48:02;;;;;;;3.50;0.60;;;3.20;99.90;;;;;;5013882;28;20604;-67
2021/04/23 04:50:47;;;;;;;3.50;0.50;;;3.40;99.90;;;;;;5023314;28;20194;-67
2021/04/23 04:53:14;;;;;;;4.20;1.58;;;3.70;99.90;;;;;;5033979;28;20201;-68
2021/04/23 04:55:44;;;;;;;4.80;0.95;;;4.00;99.90;;;;;;5030621;28;20236;-68
2021/04/23 04:58:12;;;;;;;3.63;0.57;;;4.20;99.90;;;;;;5033798;28;20194;-68
2021/04/23 05:00:39;;;;;;;5.50;1.73;;;4.50;99.90;;;;;;5032347;28;20185;-68
2021/04/23 05:03:06;;;;;;;5.32;1.67;;;4.60;99.90;;;;;;5034123;28;20181;-68
2021/04/23 05:05:33;;;;;;;3.50;0.60;;;4.90;99.90;;;;;;5028870;28;20542;-67
2021/04/23 05:07:59;;;;;;;3.50;0.55;;;5.10;99.90;;;;;;5047862;28;20257;-67
2021/04/23 05:10:25;;;;;;;3.97;0.90;;;5.40;99.90;;;;;;5016352;28;20171;-67
2021/04/23 05:12:51;;;;;;;3.47;0.63;;;5.60;99.70;;;;;;5033463;28;20235;-66
2021/04/23 05:15:18;;;;;;;3.70;0.60;;;5.70;98.70;;;;;;5015430;28;20421;-66
2021/04/23 05:17:44;;;;;;;5.00;0.77;;;5.90;98.40;;;;;;5013439;28;20500;-66
2021/04/23 05:20:11;;;;;;;5.05;1.73;;;6.10;98.00;;;;;;5013652;28;20167;-67
2021/04/23 05:22:38;;;;;;;3.50;0.50;;;6.40;97.40;;;;;;5013851;28;20534;-67
2021/04/23 05:25:05;;;;;;;4.45;1.23;;;6.60;96.80;;;;;;5028372;28;20544;-67
2021/04/23 05:27:31;;;;;;;13.32;1.88;;;6.70;96.00;;;;;;5021129;28;20174;-68
2021/04/23 05:29:57;;;;;;;4.47;1.10;;;6.80;96.10;;;;;;5023446;28;20189;-67
2021/04/23 05:32:22;;;;;;;7.50;1.73;;;6.80;95.90;;;;;;5033109;28;20291;-67
2021/04/23 05:34:49;;;;;;;6.50;1.90;;;6.80;95.60;;;;;;5027915;28;20178;-67
2021/04/23 05:37:15;;;;;;;7.15;1.02;;;7.00;95.40;;;;;;5033170;28;20166;-68
2021/04/23 05:39:44;;;;;;;3.60;0.82;;;7.10;95.30;;;;;;5031654;28;20202;-68
2021/04/23 05:42:14;;;;;;;4.40;1.63;;;7.20;95.20;;;;;;5032994;28;20258;-66
2021/04/23 05:44:41;;;;;;;3.95;1.45;;;7.60;94.90;;;;;;5028489;28;20201;-67
2021/04/23 05:47:07;;;;;;;5.00;1.25;;;7.90;93.50;;;;;;5033136;28;20216;-67
2021/04/23 05:49:34;;;;;;;4.53;1.63;;;8.10;92.70;;;;;;5019460;28;20210;-66
2021/04/23 05:52:02;;;;;;;3.90;1.20;;;8.20;92.20;;;;;;5025302;28;20453;-66
2021/04/23 05:54:28;;;;;;;4.20;1.55;;;8.20;92.00;;;;;;5030053;28;20174;-67
2021/04/23 05:56:54;;;;;;;5.68;1.60;;;8.50;92.10;;;;;;5050735;28;20524;-66
2021/04/23 05:59:20;;;;;;;4.30;1.43;;;8.70;91.30;;;;;;5023686;28;20206;-67
2021/04/23 06:01:46;;;;;;;4.20;1.47;;;8.90;90.90;;;;;;5027051;28;20178;-65
2021/04/23 06:04:11;;;;;;;6.10;2.13;;;9.00;90.40;;;;;;5025483;28;20432;-66
2021/04/23 06:06:37;;;;;;;4.70;1.60;;;9.10;90.10;;;;;;5015863;28;20182;-66
2021/04/23 06:09:04;;;;;;;8.67;2.93;;;9.20;90.10;;;;;;5027795;28;20855;-66
2021/04/23 06:11:30;;;;;;;4.78;1.70;;;9.20;89.40;;;;;;5029354;28;20206;-65
2021/04/23 06:13:56;;;;;;;8.60;1.80;;;9.30;89.90;;;;;;5035358;28;20258;-68
2021/04/23 06:16:22;;;;;;;10.33;2.23;;;9.40;89.50;;;;;;5021667;28;20182;-66
2021/04/23 06:18:47;;;;;;;5.05;2.10;;;9.60;89.30;;;;;;5039948;28;20587;-66
2021/04/23 06:21:13;;;;;;;4.00;1.30;;;9.90;87.90;;;;;;5047186;28;20231;-64
2021/04/23 06:23:39;;;;;;;5.03;2.07;;;10.40;86.10;;;;;;5036685;28;20175;-65
2021/04/23 06:26:05;;;;;;;9.40;2.20;;;10.80;84.00;;;;;;5035693;28;20855;-63
2021/04/23 06:28:32;;;;;;;6.30;2.50;;;11.20;82.20;;;;;;5036233;28;20447;-64
2021/04/23 06:30:58;;;;;;;6.40;2.33;;;11.10;81.70;;;;;;5032818;28;20951;-64
2021/04/23 06:33:28;;;;;;;6.53;3.00;;;11.00;81.40;;;;;;5029592;28;20489;-68
2021/04/23 06:35:54;;;;;;;6.03;2.13;;;10.90;82.10;;;;;;5039198;28;20423;-66
2021/04/23 06:38:20;;;;;;;6.80;2.10;;;10.80;83.50;;;;;;5037945;28;20942;-66
2021/04/23 06:40:46;;;;;;;6.47;2.50;;;11.00;81.30;;;;;;5034002;28;20929;-69
2021/04/23 06:43:12;;;;;;;5.30;2.40;;;11.00;81.30;;;;;;5034087;28;20408;-67
2021/04/23 06:45:38;;;;;;;5.80;2.23;;;11.10;81.20;;;;;;5036479;28;20172;-69
2021/04/23 06:48:04;;;;;;;7.60;2.70;;;11.30;80.80;;;;;;5036069;28;20191;-68
2021/04/23 06:50:30;;;;;;;5.47;3.10;;;11.40;80.40;;;;;;5050956;28;20500;-68
2021/04/23 06:52:57;;;;;;;5.97;2.00;;;11.60;79.90;;;;;;5036006;28;20451;-68
2021/04/23 06:55:23;;;;;;;16.07;3.57;;;11.60;79.10;;;;;;5036079;28;20305;-68
2021/04/23 06:57:50;;;;;;;7.90;2.83;;;11.80;78.60;;;;;;5033656;28;20447;-67
2021/04/23 07:00:26;;;;;;;7.70;3.30;;;11.80;78.50;;;;;;5041684;28;20436;-64
2021/04/23 07:02:52;;;;;;;5.33;2.50;;;12.20;78.30;;;;;;5062560;28;20424;-68
2021/04/23 07:05:18;;;;;;;6.37;2.90;;;12.00;75.30;;;;;;5038055;28;20789;-66
2021/04/23 07:07:45;;;;;;;6.63;2.87;;;12.20;76.20;;;;;;5035079;28;20439;-69
2021/04/23 07:10:13;;;;;;;6.50;2.43;;;12.40;75.70;;;;;;5035132;28;20901;-71
2021/04/23 07:12:39;;;;;;;9.00;3.43;;;12.50;76.40;;;;;;5035838;28;20516;-72
2021/04/23 07:15:07;;;;;;;5.10;2.63;;;12.70;74.50;;;;;;5035732;28;20431;-68
2021/04/23 07:17:33;;;;;;;7.73;2.30;;;12.90;73.20;;;;;;5035154;28;20412;-70
2021/04/23 07:19:58;;;;;;;6.60;2.73;;;13.20;73.10;;;;;;5037176;28;20940;-70
2021/04/23 07:22:24;;;;;;;8.90;2.50;;;13.30;71.30;;;;;;5055874;28;20624;-71
2021/04/23 07:24:50;;;;;;;5.10;2.50;;;13.70;71.40;;;;;;5055538;28;20264;-71
2021/04/23 07:27:15;;;;;;;7.53;3.00;;;14.40;69.00;;;;;;5055324;28;20187;-72
2021/04/23 07:29:41;;;;;;;5.67;2.67;;;15.10;66.70;;;;;;5052332;28;20269;-73
2021/04/23 07:32:07;;;;;;;8.40;2.50;;;15.70;64.90;;;;;;5035649;28;20555;-72
2021/04/23 07:34:35;;;;;;;7.83;3.20;;;16.30;63.00;;;;;;5035498;28;20528;-71
2021/04/23 07:37:01;;;;;;;4.47;2.20;;;16.60;60.00;;;;;;5034834;28;20470;-71
2021/04/23 07:39:27;;;;;;;4.53;2.63;;;16.80;59.80;;;;;;5035203;28;20566;-74
2021/04/23 07:41:56;;;;;;;5.50;2.57;;;17.10;59.40;;;;;;5039542;28;20565;-72
2021/04/23 07:44:24;;;;;;;4.33;2.20;;;18.10;58.90;;;;;;5037621;28;20437;-73
2021/04/23 07:46:50;;;;;;;6.00;2.30;;;19.20;57.10;;;;;;5041824;28;20406;-68
2021/04/23 07:49:16;;;;;;;4.63;2.23;;;20.40;55.40;;;;;;5054797;28;20541;-66
2021/04/23 07:51:42;;;;;;;5.50;2.40;;;21.10;51.80;;;;;;5035833;28;20428;-68
2021/04/23 07:54:09;;;;;;;4.17;2.23;;;21.30;50.70;;;;;;5034983;28;20420;-68
2021/04/23 07:56:35;;;;;;;3.90;1.83;;;21.80;49.10;;;;;;5034707;28;20425;-68
2021/04/23 07:59:01;;;;;;;4.53;2.40;;;22.50;47.80;;;;;;5037288;28;20531;-65
2021/04/23 08:01:27;;;;;;;4.83;2.50;;;23.00;47.20;;;;;;5035192;28;20519;-65
2021/04/23 08:03:53;;;;;;;5.67;2.40;;;23.80;45.50;;;;;;5043180;28;20419;-67
2021/04/23 08:06:18;;;;;;;5.93;3.00;;;23.30;45.50;;;;;;5034646;28;20286;-67
2021/04/23 08:08:44;;;;;;;8.20;2.80;;;23.30;45.90;;;;;;5034678;28;20204;-66
2021/04/23 08:11:10;;;;;;;5.77;3.37;;;23.70;46.60;;;;;;5034072;28;20600;-67
2021/04/23 08:13:36;;;;;;;5.70;3.17;;;24.10;45.20;;;;;;5034454;28;20197;-65
2021/04/23 08:16:01;;;;;;;5.10;2.73;;;24.30;44.00;;;;;;5019429;28;20244;-65
2021/04/23 08:18:27;;;;;;;4.33;2.60;;;24.40;44.60;;;;;;5023821;28;20288;-67
2021/04/23 08:20:53;;;;;;;5.53;2.90;;;24.60;43.60;;;;;;5026426;28;20645;-66
2021/04/23 08:23:18;;;;;;;5.27;2.53;;;25.20;42.20;;;;;;5014563;28;20219;-68
2021/04/23 08:25:44;;;;;;;6.23;3.27;;;25.10;41.90;;;;;;5029060;28;20209;-67
2021/04/23 08:28:11;;;;;;;9.90;3.00;;;25.40;42.60;;;;;;5030007;28;20559;-66
2021/04/23 08:30:36;;;;;;;4.47;2.13;;;25.60;41.10;;;;;;5024937;28;20185;-66
2021/04/23 08:33:02;;;;;;;4.40;2.50;;;25.60;41.40;;;;;;5034411;28;20795;-68
2021/04/23 08:35:28;;;;;;;4.57;2.00;;;24.90;40.40;;;;;;5034126;28;20183;-71
2021/04/23 08:37:54;;;;;;;6.30;2.10;;;24.80;40.60;;;;;;5033213;28;20198;-66
2021/04/23 08:40:21;;;;;;;4.17;1.90;;;25.10;40.40;;;;;;5045975;28;20174;-71
2021/04/23 08:42:48;;;;;;;4.83;2.50;;;25.00;40.40;;;;;;5032943;28;20417;-69
2021/04/23 08:45:17;;;;;;;5.00;2.93;;;24.70;39.90;;;;;;5034077;28;20416;-75
2021/04/23 08:47:43;;;;;;;3.90;2.30;;;24.60;41.00;;;;;;5032728;28;20512;-70
2021/04/23 08:50:11;;;;;;;6.13;2.80;;;24.60;40.10;;;;;;5033740;28;20407;-70
2021/04/23 08:52:41;;;;;;;4.10;2.60;;;24.50;40.50;;;;;;5049505;28;20803;-67
2021/04/23 08:55:07;;;;;;;6.40;2.33;;;24.80;40.40;;;;;;5069267;28;20412;-70
2021/04/23 08:57:33;;;;;;;7.30;2.57;;;24.90;39.80;;;;;;5028110;28;20397;-74
2021/04/23 08:59:59;;;;;;;4.67;2.60;;;25.20;38.90;;;;;;5014053;28;20872;-73
2021/04/23 09:02:25;;;;;;;5.60;2.33;;;25.50;39.00;;;;;;5036273;28;20200;-69
2021/04/23 09:04:51;;;;;;;5.40;3.03;;;25.30;39.00;;;;;;5033879;28;20409;-74
2021/04/23 09:07:16;;;;;;;4.93;2.73;;;25.50;39.00;;;;;;5031780;28;20182;-73
2021/04/23 09:09:44;;;;;;;4.10;2.80;;;25.80;38.80;;;;;;5033570;28;20273;-73
2021/04/23 09:12:24;;;;;;;6.10;3.27;;;26.30;38.30;;;;;;5032453;28;20209;-73
2021/04/23 09:14:54;;;;;;;5.13;2.60;;;26.90;38.20;;;;;;5033505;28;20474;-72
2021/04/23 09:17:24;;;;;;;4.30;2.47;;;26.80;38.10;;;;;;5014923;28;20488;-72
2021/04/23 09:19:52;;;;;;;5.90;3.00;;;26.70;38.10;;;;;;5013725;28;20424;-69
2021/04/23 09:22:17;;;;;;;5.13;2.67;;;26.90;38.90;;;;;;5013876;28;20724;-68
2021/04/23 09:24:54;;;;;;;5.10;2.23;;;27.10;37.70;;;;;;5043253;28;20393;-68
2021/04/23 09:27:23;;;;;;;5.20;2.33;;;26.40;38.00;;;;;;5031335;28;20830;-68
2021/04/23 09:29:51;;;;;;;6.93;2.77;;;26.20;38.00;;;;;;5022177;28;20404;-67
2021/04/23 09:32:21;;;;;;;5.63;2.87;;;26.40;38.70;;;;;;5015574;28;20432;-66
2021/04/23 09:34:50;;;;;;;4.10;2.50;;;26.10;38.30;;;;;;5022960;28;20388;-68
2021/04/23 09:37:18;;;;;;;4.30;2.60;;;26.40;39.50;;;;;;5032868;28;20466;-68
2021/04/23 09:39:45;;;;;;;5.53;3.07;;;26.40;37.70;;;;;;5029012;28;20437;-69
2021/04/23 09:42:11;;;;;;;4.73;2.80;;;26.40;37.20;;;;;;5020027;28;20417;-67
2021/04/23 09:44:42;;;;;;;5.93;2.70;;;25.70;37.30;;;;;;5024349;28;20988;-69
2021/04/23 09:47:22;;;;;;;3.97;2.10;;;25.50;37.50;;;;;;5031517;28;20387;-67
2021/04/23 09:49:52;;;;;;;4.03;2.27;;;25.90;37.50;;;;;;5024636;28;20798;-67
2021/04/23 09:52:18;;;;;;;6.20;2.37;;;26.00;37.00;;;;;;5030910;28;20437;-67
2021/04/23 09:54:47;;;;;;;4.43;2.60;;;26.50;37.40;;;;;;5053079;28;20465;-68
2021/04/23 09:57:27;;;;;;;3.57;2.20;;;27.20;37.60;;;;;;5034355;28;20379;-67
2021/04/23 09:59:58;;;;;;;4.73;2.67;;;27.70;36.50;;;;;;5020504;28;20433;-67
2021/04/23 10:02:26;;;;;;;7.20;3.47;;;27.40;37.40;;;;;;5027899;28;20400;-67
2021/04/23 10:04:52;;;;;;;6.90;2.30;;;27.00;37.50;;;;;;5032988;28;20387;-67
2021/04/23 10:07:42;;;;;;;3.80;2.13;;;26.70;38.00;;;;;;5032598;28;20410;-65
2021/04/23 10:10:09;;;;;;;5.03;2.47;;;26.40;37.50;;;;;;5034408;28;20437;-67
2021/04/23 10:12:35;;;;;;;5.27;2.60;;;25.40;37.70;;;;;;5032407;28;20522;-68
2021/04/23 10:15:20;;;;;;;4.13;2.53;;;25.50;37.50;;;;;;5032948;28;20508;-66
2021/04/23 10:18:03;;;;;;;5.87;2.00;;;25.40;37.20;;;;;;5032139;28;20580;-67
2021/04/23 10:20:33;;;;;;;4.40;2.57;;;25.20;37.40;;;;;;5033647;28;20426;-66
2021/04/23 10:23:01;;;;;;;4.27;2.10;;;25.90;37.60;;;;;;5032506;28;20399;-66
2021/04/23 10:25:28;;;;;;;4.20;2.80;;;26.20;36.50;;;;;;5043101;28;20774;-68
2021/04/23 10:27:55;;;;;;;5.50;2.63;;;26.10;35.30;;;;;;5044389;28;20419;-67
2021/04/23 10:30:25;;;;;;;3.87;1.97;;;25.40;36.00;;;;;;5030765;28;20420;-67
2021/04/23 10:32:53;;;;;;;4.27;2.43;;;24.90;36.00;;;;;;5017102;28;20435;-70
2021/04/23 10:35:20;;;;;;;4.20;2.23;;;25.00;36.90;;;;;;5032873;28;20760;-74
2021/04/23 10:37:47;;;;;;;5.80;2.70;;;24.70;39.00;;;;;;5031673;28;20421;-76
2021/04/23 10:40:15;;;;;;;5.40;2.70;;;24.40;39.90;;;;;;5039760;28;21273;-75
2021/04/23 10:42:52;;;;;;;4.53;2.30;;;24.00;40.00;;;;;;5035036;28;20483;-73
2021/04/23 10:45:22;;;;;;;5.33;2.40;;;23.70;39.20;;;;;;5034925;28;20424;-72
2021/04/23 10:47:58;;;;;;;4.83;2.30;;;23.60;39.00;;;;;;5022373;28;20498;-73
2021/04/23 10:50:27;;;;;;;5.50;2.23;;;23.60;38.30;;;;;;5047702;28;20448;-74
2021/04/23 10:53:03;;;;;;;3.50;1.73;;;23.10;38.20;;;;;;5014977;28;20472;-74
2021/04/23 10:55:55;;;;;;;5.20;2.30;;;23.10;39.30;;;;;;5022362;28;20907;-72
2021/04/23 10:58:27;;;;;;;6.57;2.10;;;23.00;38.30;;;;;;5027728;28;20436;-73
2021/04/23 11:00:54;;;;;;;3.93;2.03;;;22.90;38.50;;;;;;5031440;28;20420;-72
2021/04/23 11:03:20;;;;;;;3.50;1.80;;;23.40;38.70;;;;;;5035306;28;20428;-72
2021/04/23 11:05:47;;;;;;;5.40;2.93;;;23.40;39.10;;;;;;5020666;28;20751;-74
2021/04/23 11:08:13;;;;;;;4.37;2.57;;;22.90;39.30;;;;;;5023300;28;20198;-76
2021/04/23 11:11:13;;;;;;;5.80;2.90;;;22.60;39.60;;;;;;5040479;28;20431;-76
2021/04/23 11:13:40;;;;;;;6.97;2.70;;;21.60;39.30;;;;;;5048306;28;20521;-71
2021/04/23 11:16:25;;;;;;;4.70;2.20;;;20.40;39.80;;;;;;5021807;28;20409;-73
2021/04/23 11:18:53;;;;;;;5.17;2.40;;;19.60;40.40;;;;;;5025165;28;20422;-72
2021/04/23 11:24:16;;;;;;;7.33;2.67;;;18.00;44.20;;;;;;5025784;28;20420;-74
2021/04/23 11:26:57;;;;;;;4.17;1.93;;;17.40;44.60;;;;;;5025207;28;20853;-72
2021/04/23 11:29:28;;;;;;;9.10;2.53;;;17.20;46.10;;;;;;5027014;28;20440;-71
2021/04/23 11:32:12;;;;;;;6.30;2.30;;;17.20;47.90;;;;;;5024515;28;20518;-70
2021/04/23 11:34:45;;;;;;;4.93;2.33;;;17.20;46.60;;;;;;5045437;28;20416;-71
2021/04/23 11:37:18;;;;;;;5.93;2.33;;;17.20;43.30;;;;;;5023869;28;20468;-74
2021/04/23 11:39:46;;;;;;;5.73;3.20;;;16.90;43.40;;;;;;5030573;28;20441;-76
2021/04/23 11:42:28;;;;;;;4.97;1.50;;;16.70;44.20;;;;;;5033630;28;20383;-72
2021/04/23 11:45:06;;;;;;;4.17;1.77;;;16.50;44.60;;;;;;5029348;28;20428;-72
2021/04/23 11:47:51;;;;;;;7.37;1.93;;;16.40;45.10;;;;;;5027335;28;20425;-72
2021/04/23 11:50:19;;;;;;;4.30;1.80;;;16.40;45.00;;;;;;5017924;28;20433;-75
2021/04/23 11:52:51;;;;;;;3.93;1.73;;;16.50;45.20;;;;;;5019845;28;20548;-72
2021/04/23 11:55:22;;;;;;;4.10;1.57;;;16.60;45.90;;;;;;5032057;28;20421;-69
2021/04/23 11:57:50;;;;;;;6.60;2.37;;;16.70;44.20;;;;;;5020830;28;20473;-68
2021/04/23 12:00:23;;;;;;;4.70;1.40;;;16.80;43.80;;;;;;5017633;28;20480;-67
2021/04/23 12:02:55;;;;;;;7.23;2.37;;;16.80;44.30;;;;;;5023066;28;20425;-68
2021/04/23 12:05:37;;;;;;;2.97;1.20;;;16.90;42.80;;;;;;5015136;28;20433;-64
2021/04/23 12:08:20;;;;;;;6.77;1.60;;;16.80;41.90;;;;;;5013948;28;20491;-65
2021/04/23 12:10:50;;;;;;;4.13;1.60;;;16.80;43.40;;;;;;5025443;28;20908;-66
2021/04/23 12:13:26;;;;;;;4.83;1.97;;;16.90;43.20;;;;;;5023500;28;20472;-66
2021/04/23 12:16:01;;;;;;;4.50;1.67;;;16.90;43.20;;;;;;5016938;28;20479;-66
2021/04/23 12:18:29;;;;;;;4.93;1.87;;;16.70;42.40;;;;;;5037081;28;20789;-66
2021/04/23 12:21:00;;;;;;;3.40;1.60;;;16.50;42.10;;;;;;5042150;28;20507;-66
2021/04/23 12:23:28;;;;;;;8.40;2.33;;;16.30;42.70;;;;;;5053061;28;20419;-66
2021/04/23 12:25:59;;;;;;;4.50;2.33;;;16.30;44.30;;;;;;5040671;28;20439;-67
2021/04/23 12:28:35;;;;;;;5.80;1.60;;;16.30;44.40;;;;;;5034001;28;21012;-65
2021/04/23 12:31:07;;;;;;;3.83;1.70;;;16.40;43.80;;;;;;5023465;28;20431;-66
2021/04/23 12:33:47;;;;;;;4.40;1.90;;;16.30;43.50;;;;;;5019214;28;20483;-66
2021/04/23 12:36:32;;;;;;;4.87;1.90;;;16.30;43.90;;;;;;5039644;28;20435;-66
2021/04/23 12:39:14;;;;;;;5.10;1.60;;;16.30;43.70;;;;;;5049104;28;20436;-68
2021/04/23 12:41:44;;;;;;;5.70;1.53;;;16.30;44.20;;;;;;5014622;28;20452;-67
2021/04/23 12:44:16;;;;;;;5.40;2.03;;;16.40;44.80;;;;;;5014841;28;20463;-67
2021/04/23 12:46:47;;;;;;;4.40;2.17;;;16.50;45.10;;;;;;5014086;28;20479;-67
2021/04/23 12:49:28;;;;;;;3.20;1.70;;;16.50;45.10;;;;;;5013444;28;20449;-67
2021/04/23 12:52:05;;;;;;;6.63;2.73;;;16.50;45.20;;;;;;5033902;28;20467;-67
2021/04/23 12:54:43;;;;;;;5.70;2.30;;;16.70;45.50;;;;;;5033409;28;20416;-68
2021/04/23 12:57:11;;;;;;;4.13;1.57;;;16.80;44.70;;;;;;5033565;28;20795;-67
2021/04/23 12:59:47;;;;;;;4.80;2.03;;;16.80;45.90;;;;;;5015733;28;20528;-67
2021/04/23 13:02:30;;;;;;;5.33;2.53;;;16.90;46.20;;;;;;5014220;28;20412;-68
2021/04/23 13:05:05;;;;;;;6.63;1.90;;;17.00;46.00;;;;;;5032925;28;20425;-68